North Sullivan, Maine
Current Conditions -  °F | °C
As of 8:15 AM on Wednesday 22 Oct 2014 (Local Time) from KBHB Reporting Station
Overcast Overcast  
Wind Chill: 42°   Ceiling: 1400
Heat Index: 48°   Visibility: 10mi
Dew Point: 48°   Wind: 16mph
Humidity: 100%   Direction: 30°NNE
Pressure: 30.17"   Gusts: NA
Location:  44.5542°N, 68.1357°W
Report Text: KBHB 221215Z AUTO 03014KT 10SM BKN014 BKN048 OVC090 09/09 A3017 RMK AO1
Loading
Personal Weather Stations






























Interactive Weather Map
Tropical Storm Tracking
New forecast layout! Learn more

10-Day Weather Forecast

Advertisements
Track Severe Weather on mobile